^^
Meteo Knjazevac Station Historical Data
Daily Summary for March 10, 2021 Units:  English    Metric   Both
Daily Weekly Monthly Yearly Custom
  High: Low: Average:
Temperature: 40.6 °F 34.1 °F 37 °F
Dew Point: 40.4 °F 33.8 °F 36.7 °F
Humidity: 99% 98% 99%
Wind Speed: 3mph 0mph 1mph
Wind Gust: 6mph - -
Wind- - West
Pressure: 30.60 in 30.57 in -
Precipitation: 0.00 in    
Historical Graphs
 
 
Tabular Data for March 10, 2021
Time Temperature Dew Point Pressure Wind Wind Speed Wind Gust Humidity Rainfall Rate (Hourly) solar Conditions
00:00 40.1 °F 39.6 °F 30.57 in WSW 2 mph 4 mph 98% 0.00 in 0 W/m2
00:10 39.7 °F 39.5 °F 30.57 in West 1 mph 2 mph 99% 0.00 in 0 W/m2
00:20 39.4 °F 39.1 °F 30.57 in NNW 1 mph 2 mph 99% 0.00 in 0 W/m2
00:30 39 °F 38.8 °F 30.57 in Calm   3 mph 99% 0.00 in 0 W/m2
00:40 38.5 °F 38.2 °F 30.57 in South 1 mph 2 mph 99% 0.00 in 0 W/m2
00:50 38.1 °F 37.9 °F 30.58 in West 1 mph 2 mph 99% 0.00 in 0 W/m2
01:00 37.8 °F 37.5 °F 30.58 in NW 2 mph 3 mph 99% 0.00 in 0 W/m2
01:10 37.6 °F 37.3 °F 30.58 in Calm   3 mph 99% 0.00 in 0 W/m2
01:20 37.1 °F 36.9 °F 30.58 in Calm   2 mph 99% 0.00 in 0 W/m2
01:30 36.7 °F 36.4 °F 30.57 in NW 1 mph 2 mph 99% 0.00 in 0 W/m2
01:40 36.1 °F 35.6 °F 30.57 in Calm   2 mph 98% 0.00 in 0 W/m2
01:50 35.7 °F 35.4 °F 30.57 in WNW 2 mph 4 mph 99% 0.00 in 0 W/m2
02:00 35.2 °F 35 °F 30.57 in Calm   2 mph 99% 0.00 in 0 W/m2
02:10 34.9 °F 34.6 °F 30.57 in Calm   2 mph 99% 0.00 in 0 W/m2
02:20 34.5 °F 34.3 °F 30.57 in NNW 1 mph 2 mph 99% 0.00 in 0 W/m2
02:30 34.3 °F 34.1 °F 30.57 in NNE 3 mph 5 mph 99% 0.00 in 0 W/m2
02:40 34.2 °F 33.9 °F 30.57 in WNW 1 mph 2 mph 99% 0.00 in 0 W/m2
02:50 34.1 °F 33.8 °F 30.57 in Calm   2 mph 99% 0.00 in 0 W/m2
03:00 34.3 °F 34.1 °F 30.57 in NNW 1 mph 3 mph 99% 0.00 in 0 W/m2
03:10 34.3 °F 34.1 °F 30.57 in West 2 mph 2 mph 99% 0.00 in 0 W/m2
03:20 34.3 °F 34.1 °F 30.57 in Calm   3 mph 99% 0.00 in 0 W/m2
03:30 34.3 °F 34.1 °F 30.57 in West 3 mph 5 mph 99% 0.00 in 0 W/m2
03:40 34.4 °F 34.2 °F 30.57 in WNW 3 mph 5 mph 99% 0.00 in 0 W/m2
03:50 34.7 °F 34.4 °F 30.58 in West 2 mph 5 mph 99% 0.00 in 0 W/m2
04:00 35 °F 34.7 °F 30.58 in NW 1 mph 5 mph 99% 0.00 in 0 W/m2
04:10 35.2 °F 35 °F 30.58 in NNW 1 mph 2 mph 99% 0.00 in 0 W/m2
04:20 35.4 °F 35.2 °F 30.58 in Calm   2 mph 99% 0.00 in 0 W/m2
04:30 35.4 °F 35.2 °F 30.58 in Calm   2 mph 99% 0.00 in 0 W/m2
04:40 35.4 °F 35.2 °F 30.58 in NW 1 mph 2 mph 99% 0.00 in 0 W/m2
04:50 35.6 °F 35.3 °F 30.58 in NW 1 mph 2 mph 99% 0.00 in 0 W/m2
05:00 35.8 °F 35.5 °F 30.58 in Calm   2 mph 99% 0.00 in 0 W/m2
05:10 36 °F 35.7 °F 30.58 in Calm   1 mph 99% 0.00 in 0 W/m2
05:20 36.1 °F 35.9 °F 30.58 in WNW 1 mph 2 mph 99% 0.00 in 0 W/m2
05:30 36.3 °F 36.1 °F 30.58 in NW 1 mph 3 mph 99% 0.00 in 0 W/m2
05:40 36.6 °F 36.3 °F 30.58 in WNW 2 mph 3 mph 99% 0.00 in 0 W/m2
05:50 36.9 °F 36.6 °F 30.58 in NW 1 mph 3 mph 99% 0.00 in 0 W/m2
06:00 37 °F 36.8 °F 30.58 in Calm   2 mph 99% 0.00 in 0 W/m2
06:10 37.2 °F 37 °F 30.58 in Calm   2 mph 99% 0.00 in 0 W/m2
06:20 37.2 °F 37 °F 30.58 in Calm   2 mph 99% 0.00 in 1 W/m2
06:30 37.2 °F 37 °F 30.58 in NW 1 mph 2 mph 99% 0.00 in 4 W/m2
06:40 37.4 °F 37.1 °F 30.58 in NW 1 mph 2 mph 99% 0.00 in 8 W/m2
06:50 37.6 °F 37.3 °F 30.59 in NW 1 mph 3 mph 99% 0.00 in 13 W/m2
07:00 37.6 °F 37.3 °F 30.59 in West 1 mph 4 mph 99% 0.00 in 17 W/m2
07:10 37.6 °F 37.3 °F 30.59 in NW 1 mph 5 mph 99% 0.00 in 19 W/m2
07:20 37.7 °F 37.4 °F 30.59 in West 1 mph 2 mph 99% 0.00 in 25 W/m2
07:30 37.8 °F 37.5 °F 30.59 in Calm   4 mph 99% 0.00 in 23 W/m2
07:40 37.9 °F 37.7 °F 30.60 in Calm   2 mph 99% 0.00 in 26 W/m2
07:50 38.1 °F 37.9 °F 30.60 in NNW 1 mph 3 mph 99% 0.00 in 25 W/m2
08:00 38.3 °F 38 °F 30.60 in Calm   2 mph 99% 0.00 in 39 W/m2
08:10 38.5 °F 38.2 °F 30.59 in West 1 mph 4 mph 99% 0.00 in 42 W/m2
08:20 38.5 °F 38.2 °F 30.59 in WSW 2 mph 3 mph 99% 0.00 in 45 W/m2
08:30 38.7 °F 38.4 °F 30.59 in WSW 1 mph 2 mph 99% 0.00 in 61 W/m2
08:40 38.8 °F 38.6 °F 30.59 in WSW 2 mph 3 mph 99% 0.00 in 57 W/m2
08:50 39 °F 38.8 °F 30.59 in SW 2 mph 3 mph 99% 0.00 in 64 W/m2
09:00 39 °F 38.8 °F 30.59 in SW 1 mph 3 mph 99% 0.00 in 79 W/m2
09:10 39.3 °F 39.1 °F 30.59 in SW 2 mph 4 mph 99% 0.00 in 77 W/m2
09:20 39.6 °F 39.3 °F 30.59 in WSW 2 mph 3 mph 99% 0.00 in 94 W/m2
09:30 39.8 °F 39.6 °F 30.59 in SW 3 mph 6 mph 99% 0.00 in 119 W/m2
09:40 40.2 °F 39.9 °F 30.58 in WSW 1 mph 5 mph 99% 0.00 in 194 W/m2
09:50 40.6 °F 40.4 °F 30.59 in Calm   3 mph 99% 0.00 in 195 W/m2
Knjazevac, Serbia
Compliments of Weather Underground - 2 mb